Time;durP1;ratioP1;P1;durP2;ratioP2;P2;SDS_P1;SDS_P2;PMS_P1;PMS_P2;Temp;Humidity;BMP_temperature;BMP_pressure;BME280_temperature;BME280_humidity;BME280_pressure;Samples;Min_cycle;Max_cycle;Signal;HPM_P1;HPM_P2
2022/04/08 00:01:51;;;;;;;14.93;13.07;;;;;;;8.24;81.53;98026.56;5006573;28;20057;-57
2022/04/08 00:04:17;;;;;;;20.27;14.30;;;;;;;8.35;82.06;98028.72;5022577;28;20330;-58
2022/04/08 00:06:43;;;;;;;21.85;16.25;;;;;;;8.23;82.17;98036.03;5020981;28;20029;-57
2022/04/08 00:09:08;;;;;;;20.98;15.20;;;;;;;8.26;81.28;98027.34;5022802;28;20030;-57
2022/04/08 00:11:34;;;;;;;19.90;14.30;;;;;;;8.35;80.63;98036.44;5023312;28;20030;-57
2022/04/08 00:14:00;;;;;;;19.05;14.88;;;;;;;8.30;81.60;98026.31;5025867;28;20030;-58
2022/04/08 00:16:26;;;;;;;18.23;14.75;;;;;;;8.40;81.52;98042.28;5025698;28;20041;-57
2022/04/08 00:18:51;;;;;;;18.60;14.93;;;;;;;8.40;80.34;98034.53;5025328;28;20033;-57
2022/04/08 00:21:18;;;;;;;17.33;14.60;;;;;;;8.37;80.45;98032.91;5025433;28;20072;-58
2022/04/08 00:23:44;;;;;;;18.75;14.65;;;;;;;8.35;80.50;98042.47;5020679;28;20030;-56
2022/04/08 00:26:09;;;;;;;20.10;14.52;;;;;;;8.31;81.17;98022.84;5011357;28;20044;-57
2022/04/08 00:28:35;;;;;;;22.13;16.10;;;;;;;8.30;81.28;98026.31;5040606;28;20326;-57
2022/04/08 00:31:02;;;;;;;24.45;14.43;;;;;;;8.36;80.25;98031.22;5025403;28;20045;-57
2022/04/08 00:33:31;;;;;;;18.92;15.30;;;;;;;8.36;81.17;98023.50;5024835;28;20030;-57
2022/04/08 00:35:57;;;;;;;20.83;15.27;;;;;;;8.38;80.43;98039.75;5035990;28;20338;-57
2022/04/08 00:38:22;;;;;;;19.38;15.38;;;;;;;8.38;80.06;98029.44;5029677;28;20029;-57
2022/04/08 00:40:48;;;;;;;19.77;15.07;;;;;;;8.37;80.37;98032.91;5017086;28;20030;-56
2022/04/08 00:43:15;;;;;;;25.00;15.32;;;;;;;8.34;81.00;98030.47;5024955;28;20029;-56
2022/04/08 00:45:41;;;;;;;21.30;16.35;;;;;;;8.28;80.20;98033.28;5025062;28;20046;-57
2022/04/08 00:48:08;;;;;;;18.90;15.63;;;;;;;8.26;80.16;98038.47;5025054;28;20104;-57
2022/04/08 00:50:44;;;;;;;24.35;15.73;;;;;;;8.37;80.64;98027.75;5013805;28;20034;-57
2022/04/08 00:53:10;;;;;;;20.42;15.63;;;;;;;8.40;79.44;98034.53;5024504;28;20036;-57
2022/04/08 00:55:51;;;;;;;18.95;14.88;;;;;;;8.36;80.06;98038.97;5024711;28;20021;-57
2022/04/08 00:58:17;;;;;;;19.25;15.30;;;;;;;8.26;80.24;98040.22;5024879;28;20029;-57
2022/04/08 01:00:43;;;;;;;22.15;15.88;;;;;;;8.29;79.99;98037.53;5040046;28;20342;-57
2022/04/08 01:03:09;;;;;;;18.23;15.40;;;;;;;8.33;79.54;98036.50;5024330;28;20072;-56
2022/04/08 01:05:35;;;;;;;20.13;15.10;;;;;;;8.28;80.31;98041.03;5023486;28;20030;-57
2022/04/08 01:08:03;;;;;;;18.73;15.77;;;;;;;8.19;80.02;98049.09;5024497;28;20026;-57
2022/04/08 01:10:28;;;;;;;20.48;15.15;;;;;;;8.26;79.43;98040.22;5024477;28;20344;-57
2022/04/08 01:12:54;;;;;;;20.90;15.82;;;;;;;8.06;79.92;98036.69;5023605;28;20025;-57
2022/04/08 01:15:22;;;;;;;20.00;15.32;;;;;;;7.86;79.39;97996.19;5024418;28;20026;-56
2022/04/08 01:17:49;;;;;;;22.15;16.10;;;;;;;8.09;79.18;98044.31;5024182;28;20029;-56
2022/04/08 01:20:15;;;;;;;21.20;15.20;;;;;;;8.04;80.03;98035.91;5024215;28;20037;-57
2022/04/08 01:22:41;;;;;;;18.38;15.40;;;;;;;8.12;79.63;98033.88;5024452;28;20214;-57
2022/04/08 01:25:09;;;;;;;18.25;15.05;;;;;;;8.07;78.42;98028.06;5024192;28;20037;-58
2022/04/08 01:27:37;;;;;;;17.52;14.27;;;;;;;8.03;78.43;98023.06;5056122;28;20076;-57
2022/04/08 01:30:12;;;;;;;23.48;16.13;;;;;;;7.91;78.80;98019.22;5024100;28;20049;-57
2022/04/08 01:32:39;;;;;;;22.08;15.00;;;;;;;7.71;78.81;97971.84;5024031;28;20030;-57
2022/04/08 01:35:05;;;;;;;20.45;15.98;;;;;;;7.91;78.66;98022.63;5024091;28;20021;-57
2022/04/08 01:37:30;;;;;;;20.08;15.63;;;;;;;7.90;79.21;98022.69;5039594;28;20200;-56
2022/04/08 01:39:56;;;;;;;21.30;15.57;;;;;;;7.90;79.31;98028.69;5023712;28;20038;-57
2022/04/08 01:42:24;;;;;;;19.27;15.30;;;;;;;7.84;79.09;98022.91;5024109;28;20026;-56
2022/04/08 01:44:53;;;;;;;21.15;14.25;;;;;;;7.92;78.08;98026.03;5023672;28;20033;-56
2022/04/08 01:47:19;;;;;;;19.25;14.93;;;;;;;7.78;78.33;98018.81;5023861;28;20235;-57
2022/04/08 01:49:45;;;;;;;18.75;14.43;;;;;;;7.84;78.32;98030.66;5023804;28;20093;-57
2022/04/08 01:52:11;;;;;;;21.83;15.07;;;;;;;7.85;78.73;98030.63;5022824;28;20311;-58
2022/04/08 01:54:37;;;;;;;19.40;15.55;;;;;;;7.78;78.29;98034.28;5023999;28;20026;-57
2022/04/08 01:57:02;;;;;;;19.17;14.60;;;;;;;7.84;78.29;98033.22;5031467;28;20048;-57
2022/04/08 01:59:28;;;;;;;18.52;15.20;;;;;;;7.84;78.05;98033.22;5023671;28;20021;-57
2022/04/08 02:01:53;;;;;;;18.58;15.23;;;;;;;7.86;77.41;98036.59;5019159;28;20033;-58
2022/04/08 02:04:19;;;;;;;17.67;14.50;;;;;;;7.85;78.07;98038.34;5023739;28;20026;-57
2022/04/08 02:06:45;;;;;;;19.38;14.25;;;;;;;7.74;77.62;98023.28;5023192;28;20314;-58
2022/04/08 02:09:13;;;;;;;16.45;13.90;;;;;;;7.80;77.29;98032.50;5023525;28;20434;-59
2022/04/08 02:11:39;;;;;;;17.65;14.70;;;;;;;7.81;77.34;98030.75;5023281;28;20022;-58
2022/04/08 02:14:05;;;;;;;20.73;14.10;;;;;;;7.67;77.38;98016.66;5023129;28;20032;-59
2022/04/08 02:16:31;;;;;;;17.17;13.82;;;;;;;7.76;77.74;98023.22;5038710;28;20089;-57
2022/04/08 02:18:57;;;;;;;17.13;13.23;;;;;;;7.74;77.30;98033.56;5023465;28;20034;-57
2022/04/08 02:21:23;;;;;;;19.65;14.63;;;;;;;7.81;77.31;98028.19;5023473;28;20330;-58
2022/04/08 02:23:50;;;;;;;17.65;14.32;;;;;;;7.80;76.30;98035.09;5023379;28;20034;-59
2022/04/08 02:26:16;;;;;;;17.70;13.93;;;;;;;7.77;77.17;98027.47;5023315;28;20025;-58
2022/04/08 02:28:45;;;;;;;16.88;13.18;;;;;;;7.87;76.98;98038.28;5022873;28;20022;-57
2022/04/08 02:31:12;;;;;;;17.70;12.77;;;;;;;7.86;76.86;98034.03;5023202;28;20337;-57
2022/04/08 02:33:38;;;;;;;19.67;13.77;;;;;;;7.75;75.81;98031.81;5021618;28;20238;-56
2022/04/08 02:36:05;;;;;;;16.70;13.07;;;;;;;7.81;75.66;98035.91;5023155;28;20033;-57
2022/04/08 02:38:30;;;;;;;22.20;13.70;;;;;;;7.84;75.46;98035.78;5023309;28;20034;-57
2022/04/08 02:40:56;;;;;;;17.70;12.52;;;;;;;7.76;76.20;98036.09;5025625;28;20037;-57
2022/04/08 02:43:22;;;;;;;18.52;12.77;;;;;;;7.82;75.18;98035.84;5042922;28;20192;-57
2022/04/08 02:45:48;;;;;;;14.27;12.75;;;;;;;7.74;75.61;98031.00;5024558;28;20100;-57
2022/04/08 02:48:14;;;;;;;16.92;12.15;;;;;;;7.85;74.97;98038.34;5025703;28;20058;-58
2022/04/08 02:50:40;;;;;;;16.35;12.68;;;;;;;7.83;74.47;98036.72;5018790;28;20136;-58
2022/04/08 02:53:06;;;;;;;16.27;11.95;;;;;;;7.87;74.34;98038.28;5039835;28;20055;-57
2022/04/08 02:55:31;;;;;;;13.70;12.00;;;;;;;7.81;75.16;98034.19;5014797;28;20022;-57
2022/04/08 02:57:57;;;;;;;15.77;12.10;;;;;;;7.87;74.89;98033.97;5021878;28;20041;-57
2022/04/08 03:00:23;;;;;;;14.77;10.80;;;;;;;7.89;74.15;98037.31;5021285;28;20038;-58
2022/04/08 03:02:48;;;;;;;16.48;10.85;;;;;;;7.95;74.53;98046.53;5021886;28;20215;-58
2022/04/08 03:05:15;;;;;;;16.55;11.18;;;;;;;7.95;73.57;98041.38;5022697;28;20032;-57
2022/04/08 03:07:41;;;;;;;14.15;11.02;;;;;;;7.93;72.85;98045.78;5022633;28;20192;-57
2022/04/08 03:10:08;;;;;;;14.95;10.48;;;;;;;7.98;73.18;98043.88;5022473;28;20089;-58
2022/04/08 03:12:34;;;;;;;12.55;9.70;;;;;;;7.98;72.88;98037.88;5022913;28;20033;-58
2022/04/08 03:15:00;;;;;;;13.10;10.40;;;;;;;8.06;73.01;98048.72;5022616;28;20230;-58
2022/04/08 03:17:26;;;;;;;14.45;10.90;;;;;;;8.04;72.75;98051.38;5021472;28;20038;-56
2022/04/08 03:19:52;;;;;;;11.88;9.80;;;;;;;8.07;72.43;98053.81;5022921;28;20370;-56
2022/04/08 03:22:21;;;;;;;12.20;10.10;;;;;;;8.15;72.83;98052.69;5037727;28;20072;-56
2022/04/08 03:24:47;;;;;;;12.88;9.82;;;;;;;8.10;72.51;98053.72;5022781;28;20029;-57
2022/04/08 03:27:14;;;;;;;11.95;9.90;;;;;;;8.17;71.12;98056.06;5035703;28;20033;-57
2022/04/08 03:29:39;;;;;;;16.02;10.00;;;;;;;8.22;72.34;98055.00;5034172;28;20044;-57
2022/04/08 03:32:05;;;;;;;14.30;9.60;;;;;;;8.35;70.79;98055.38;5026077;28;20037;-57
2022/04/08 03:34:31;;;;;;;14.20;10.52;;;;;;;8.34;70.67;98047.66;5042452;28;20022;-57
2022/04/08 03:36:57;;;;;;;13.18;9.40;;;;;;;8.38;70.33;98049.22;5042286;28;20025;-57
2022/04/08 03:39:23;;;;;;;11.73;9.18;;;;;;;8.46;70.87;98053.25;5019151;28;20077;-57
2022/04/08 03:41:49;;;;;;;13.10;9.82;;;;;;;8.53;70.23;98052.97;5022565;28;20033;-57
2022/04/08 03:44:14;;;;;;;11.05;8.40;;;;;;;8.52;68.81;98051.31;5028345;28;20069;-57
2022/04/08 03:46:46;;;;;;;12.95;9.05;;;;;;;8.57;69.42;98044.22;5026304;28;20092;-57
2022/04/08 03:49:16;;;;;;;12.52;8.25;;;;;;;8.65;68.76;98060.25;5026157;28;20071;-58
2022/04/08 03:51:46;;;;;;;10.30;7.80;;;;;;;8.75;69.24;98058.97;5025690;28;20215;-58
2022/04/08 03:54:12;;;;;;;9.10;8.07;;;;;;;8.82;67.54;98059.53;5037235;28;20340;-58
2022/04/08 03:56:41;;;;;;;12.85;7.75;;;;;;;8.89;68.06;98063.59;5036830;28;20036;-58
2022/04/08 03:59:08;;;;;;;10.00;7.50;;;;;;;8.86;66.69;98065.44;5025327;28;20034;-58
2022/04/08 04:01:33;;;;;;;10.00;7.30;;;;;;;8.90;66.80;98064.41;5025965;28;20084;-58
2022/04/08 04:03:59;;;;;;;12.27;7.32;;;;;;;9.01;66.10;98064.81;5044581;28;20021;-58
2022/04/08 04:06:24;;;;;;;10.20;6.93;;;;;;;9.09;66.07;98061.88;5031272;28;20037;-59
2022/04/08 04:08:50;;;;;;;9.75;6.97;;;;;;;9.17;65.78;98064.19;5025330;28;20365;-57
2022/04/08 04:11:16;;;;;;;9.43;7.05;;;;;;;9.32;65.17;98061.78;5024389;28;20049;-58
2022/04/08 04:13:45;;;;;;;11.23;7.22;;;;;;;9.45;66.14;98058.69;5025955;28;20026;-58
2022/04/08 04:16:11;;;;;;;9.13;7.07;;;;;;;9.52;65.17;98064.38;5025361;28;20478;-59
2022/04/08 04:18:38;;;;;;;9.00;6.47;;;;;;;9.50;64.50;98061.88;5017494;28;20165;-58
2022/04/08 04:21:04;;;;;;;9.40;6.85;;;;;;;9.64;64.07;98063.88;5016690;28;20033;-57
2022/04/08 04:23:31;;;;;;;9.55;7.35;;;;;;;9.70;63.90;98058.41;5023611;28;20034;-57
2022/04/08 04:25:57;;;;;;;10.18;7.10;;;;;;;9.73;62.27;98063.44;5042946;28;20040;-58
2022/04/08 04:28:22;;;;;;;9.27;6.65;;;;;;;9.85;62.21;98064.66;5038412;28;20030;-56
2022/04/08 04:30:49;;;;;;;10.50;6.50;;;;;;;9.83;61.90;98072.50;5017818;28;20018;-56
2022/04/08 04:33:14;;;;;;;15.77;7.35;;;;;;;10.05;62.43;98068.94;5017165;28;20029;-57
2022/04/08 04:35:40;;;;;;;7.90;6.53;;;;;;;9.99;61.85;98066.59;5016555;28;20033;-57
2022/04/08 04:38:05;;;;;;;8.32;6.93;;;;;;;10.12;61.73;98072.91;5015661;28;20040;-57
2022/04/08 04:40:31;;;;;;;7.28;6.18;;;;;;;10.25;62.36;98064.59;5024957;28;20034;-57
2022/04/08 04:42:57;;;;;;;9.27;6.18;;;;;;;10.19;61.38;98065.72;5024941;28;20032;-57
2022/04/08 04:45:24;;;;;;;7.28;6.43;;;;;;;10.27;61.57;98062.75;5029544;28;20048;-57
2022/04/08 04:47:49;;;;;;;9.55;6.68;;;;;;;10.05;59.84;98071.53;5027791;28;20033;-58
2022/04/08 04:50:15;;;;;;;7.43;5.97;;;;;;;10.09;60.51;98065.31;5024885;28;20040;-57
2022/04/08 04:52:40;;;;;;;7.38;6.18;;;;;;;10.25;60.74;98054.25;5040220;28;20257;-58
2022/04/08 04:55:07;;;;;;;6.68;6.07;;;;;;;10.33;60.53;98062.47;5024600;28;20086;-58
2022/04/08 04:57:33;;;;;;;10.73;6.28;;;;;;;10.30;59.79;98068.66;5024659;28;20037;-57
2022/04/08 04:59:58;;;;;;;8.05;6.07;;;;;;;10.19;59.18;98058.78;5022301;28;20021;-56
2022/04/08 05:02:24;;;;;;;14.13;6.20;;;;;;;10.11;59.88;98066.06;5021016;28;20326;-56
2022/04/08 05:04:49;;;;;;;7.00;6.30;;;;;;;10.15;59.89;98057.25;5024622;28;20022;-58
2022/04/08 05:07:15;;;;;;;10.52;5.95;;;;;;;10.17;59.16;98064.94;5024521;28;20089;-57
2022/04/08 05:09:41;;;;;;;13.55;6.32;;;;;;;10.17;59.21;98052.00;5033610;28;20023;-57
2022/04/08 05:12:08;;;;;;;8.25;6.63;;;;;;;10.15;58.70;98061.59;5016793;28;20045;-57
2022/04/08 05:14:34;;;;;;;10.32;6.10;;;;;;;10.12;59.46;98053.97;5011712;28;20033;-56
2022/04/08 05:17:00;;;;;;;9.45;6.05;;;;;;;10.19;59.62;98061.38;5022744;28;20093;-57
2022/04/08 05:19:26;;;;;;;8.70;6.32;;;;;;;10.24;58.68;98057.75;5024108;28;20077;-57
2022/04/08 05:21:52;;;;;;;10.60;6.35;;;;;;;10.32;58.53;98055.63;5023556;28;20034;-58
2022/04/08 05:24:21;;;;;;;10.50;6.38;;;;;;;10.35;58.66;98055.53;5022991;28;20026;-57
2022/04/08 05:26:47;;;;;;;8.63;5.97;;;;;;;10.36;58.18;98046.81;5031597;28;20022;-57
2022/04/08 05:29:12;;;;;;;10.23;6.55;;;;;;;10.52;57.28;98052.97;5033979;28;20034;-57
2022/04/08 05:31:38;;;;;;;9.73;6.50;;;;;;;10.49;57.86;98057.47;5003136;28;20045;-57
2022/04/08 05:34:04;;;;;;;10.57;6.40;;;;;;;10.60;56.85;98056.94;5020443;28;20345;-57
2022/04/08 05:36:29;;;;;;;10.82;6.28;;;;;;;10.75;56.30;98048.44;5022360;28;20338;-57
2022/04/08 05:38:55;;;;;;;10.38;6.15;;;;;;;10.85;56.54;98056.59;5031454;28;20030;-57
2022/04/08 05:41:21;;;;;;;8.10;6.53;;;;;;;11.02;56.55;98040.22;5037727;28;20030;-58
2022/04/08 05:43:47;;;;;;;11.63;6.38;;;;;;;11.18;55.96;98051.47;5023618;28;20064;-58
2022/04/08 05:46:13;;;;;;;11.13;6.32;;;;;;;11.55;54.09;98064.31;5054804;28;20079;-58
2022/04/08 05:48:39;;;;;;;9.75;6.72;;;;;;;11.84;53.05;98056.75;5028099;28;20412;-58
2022/04/08 05:51:04;;;;;;;9.02;5.88;;;;;;;11.96;53.53;98053.56;5023801;28;20026;-56
2022/04/08 05:53:30;;;;;;;9.98;5.70;;;;;;;12.20;53.00;98056.59;5023760;28;20045;-57
2022/04/08 05:55:56;;;;;;;9.93;5.93;;;;;;;12.54;52.21;98044.34;5024142;28;20029;-57
2022/04/08 05:58:22;;;;;;;11.48;5.95;;;;;;;12.36;50.40;98056.56;5023501;28;20213;-56
2022/04/08 06:00:48;;;;;;;11.15;6.25;;;;;;;12.72;52.15;98041.63;5039979;28;20025;-57
2022/04/08 06:03:14;;;;;;;12.82;6.70;;;;;;;12.44;50.74;98043.16;5031704;28;20061;-57
2022/04/08 06:05:39;;;;;;;8.43;6.43;;;;;;;12.44;50.47;98037.97;5023535;28;20034;-57
2022/04/08 06:08:05;;;;;;;13.73;6.45;;;;;;;12.78;48.97;98039.50;5022806;28;20026;-57
2022/04/08 06:10:31;;;;;;;9.55;5.72;;;;;;;12.98;50.88;98041.88;5023315;28;20032;-59
2022/04/08 06:12:56;;;;;;;9.63;6.05;;;;;;;12.87;48.97;98043.34;5023527;28;20076;-57
2022/04/08 06:15:23;;;;;;;10.68;5.82;;;;;;;13.15;48.82;98046.09;5023369;28;20076;-57
2022/04/08 06:17:49;;;;;;;9.82;5.95;;;;;;;13.33;48.61;98047.59;5023013;28;20026;-57
2022/04/08 06:20:18;;;;;;;14.05;5.90;;;;;;;13.19;48.30;98040.63;5023362;28;20114;-58
2022/04/08 06:22:45;;;;;;;9.30;6.43;;;;;;;13.53;47.06;98050.81;5038312;28;20049;-57
2022/04/08 06:25:13;;;;;;;13.85;6.65;;;;;;;13.66;48.33;98011.91;5023163;28;20061;-58
2022/04/08 06:27:39;;;;;;;9.68;6.25;;;;;;;14.05;46.79;98054.59;5022010;28;20026;-58
2022/04/08 06:30:12;;;;;;;13.32;5.85;;;;;;;14.08;45.94;98054.41;5023179;28;20034;-58
2022/04/08 06:32:38;;;;;;;10.50;6.60;;;;;;;14.28;44.43;98056.59;5022554;28;20334;-59
2022/04/08 06:35:05;;;;;;;9.88;6.82;;;;;;;14.62;44.84;98044.06;5018590;28;20311;-58
2022/04/08 06:37:31;;;;;;;9.07;5.95;;;;;;;14.55;44.76;98047.13;5010289;28;20053;-58
2022/04/08 06:40:02;;;;;;;9.65;6.53;;;;;;;14.19;44.73;98057.16;5022649;28;20029;-58
2022/04/08 06:42:28;;;;;;;10.07;6.63;;;;;;;14.73;45.90;98045.13;5022721;28;20041;-58
2022/04/08 06:44:54;;;;;;;15.85;7.22;;;;;;;14.30;44.30;98057.34;5026588;28;20295;-58
2022/04/08 06:47:19;;;;;;;8.90;6.85;;;;;;;14.47;45.19;98053.66;5018326;28;20033;-57
2022/04/08 06:49:46;;;;;;;15.30;6.45;;;;;;;14.53;43.66;98056.81;5003303;28;20034;-58
2022/04/08 06:52:13;;;;;;;9.40;6.15;;;;;;;14.53;44.98;98062.03;5022132;28;20034;-57
2022/04/08 06:54:39;;;;;;;11.77;6.80;;;;;;;14.72;44.43;98059.09;5021522;28;20030;-58
2022/04/08 06:57:05;;;;;;;14.20;6.82;;;;;;;14.35;44.31;98048.41;5022845;28;20068;-59
2022/04/08 06:59:30;;;;;;;12.23;6.78;;;;;;;14.30;45.70;98054.72;5028206;28;20327;-58
2022/04/08 07:01:56;;;;;;;13.90;7.20;;;;;;;14.55;45.01;98053.19;5042321;28;20029;-57
2022/04/08 07:04:21;;;;;;;12.32;7.03;;;;;;;14.72;45.22;98054.72;5022718;28;20028;-57
2022/04/08 07:06:47;;;;;;;11.00;6.68;;;;;;;14.77;44.19;98055.25;5029752;28;20271;-58
2022/04/08 07:09:13;;;;;;;13.38;7.00;;;;;;;14.15;44.49;98060.88;5054690;28;20041;-58
2022/04/08 07:11:38;;;;;;;9.70;7.18;;;;;;;14.07;45.17;98057.97;5022513;28;20033;-58
2022/04/08 07:14:04;;;;;;;11.82;6.22;;;;;;;14.07;44.25;98058.78;5022676;28;20326;-58
2022/04/08 07:16:30;;;;;;;11.02;7.07;;;;;;;14.14;44.65;98065.28;5022960;28;20342;-58
2022/04/08 07:18:55;;;;;;;12.82;6.95;;;;;;;14.45;45.46;98072.91;5024690;28;20032;-58
2022/04/08 07:21:22;;;;;;;12.20;7.38;;;;;;;14.02;44.73;98060.81;5026359;28;20272;-58
2022/04/08 07:23:48;;;;;;;10.95;7.38;;;;;;;13.75;44.90;98068.56;5026343;28;20026;-59
2022/04/08 07:26:14;;;;;;;16.15;6.80;;;;;;;13.84;44.92;98073.22;5029364;28;20029;-58
2022/04/08 07:28:39;;;;;;;10.60;7.00;;;;;;;13.63;45.20;98075.34;5045246;28;20027;-58
2022/04/08 07:31:05;;;;;;;10.70;6.65;;;;;;;13.69;45.38;98068.94;5027681;28;20069;-57
2022/04/08 07:33:31;;;;;;;10.10;6.00;;;;;;;13.92;45.33;98065.78;5032472;28;20369;-57
2022/04/08 07:35:58;;;;;;;11.40;7.13;;;;;;;13.97;44.93;98078.50;5033048;28;20038;-58
2022/04/08 07:38:24;;;;;;;12.40;7.18;;;;;;;13.91;45.26;98063.25;5024284;28;20299;-59
2022/04/08 07:40:50;;;;;;;12.27;6.75;;;;;;;14.07;46.54;98060.56;5024818;28;20036;-57
2022/04/08 07:43:17;;;;;;;14.60;7.28;;;;;;;13.78;46.97;98060.56;5026260;28;20030;-57
2022/04/08 07:45:43;;;;;;;10.82;7.00;;;;;;;13.77;46.44;98061.50;5036202;28;20045;-57
2022/04/08 07:48:09;;;;;;;12.10;7.25;;;;;;;13.59;45.75;98066.06;5035512;28;20030;-57
2022/04/08 07:50:37;;;;;;;9.57;6.03;;;;;;;13.68;46.14;98057.72;5026073;28;20033;-58
2022/04/08 07:53:03;;;;;;;13.43;7.20;;;;;;;13.35;46.17;98068.34;5026341;28;20049;-58
2022/04/08 07:55:29;;;;;;;14.00;7.60;;;;;;;13.47;46.16;98075.44;5045877;28;20223;-58
2022/04/08 07:57:54;;;;;;;15.85;7.15;;;;;;;13.77;47.08;98084.94;5029277;28;20025;-58
2022/04/08 08:00:22;;;;;;;12.60;6.80;;;;;;;13.83;46.52;98076.75;5025899;28;20053;-58
2022/04/08 08:02:49;;;;;;;12.70;7.40;;;;;;;13.50;45.23;98014.59;5025408;28;20079;-58
2022/04/08 08:05:15;;;;;;;13.13;6.63;;;;;;;13.52;45.88;98062.16;5028453;28;20093;-58
2022/04/08 08:07:50;;;;;;;11.43;6.70;;;;;;;13.67;46.09;98068.19;5035003;28;20080;-58
2022/04/08 08:10:37;;;;;;;10.50;6.88;;;;;;;13.52;45.87;98018.75;5025371;28;20029;-59
2022/04/08 08:13:03;;;;;;;10.48;6.72;;;;;;;13.59;46.11;98072.06;5025140;28;20073;-59
2022/04/08 08:15:30;;;;;;;12.65;6.53;;;;;;;13.71;46.57;98067.06;5025682;28;20040;-59
2022/04/08 08:17:57;;;;;;;9.35;7.45;;;;;;;13.44;47.02;98068.66;5034237;28;20053;-59
2022/04/08 08:20:23;;;;;;;9.75;6.75;;;;;;;13.55;45.96;98070.63;5031713;28;20030;-59
2022/04/08 08:22:49;;;;;;;11.60;6.85;;;;;;;13.43;45.49;98061.75;5025853;28;20022;-58
2022/04/08 08:25:16;;;;;;;11.00;6.82;;;;;;;13.63;45.87;98057.13;5024123;28;20219;-58
2022/04/08 08:27:48;;;;;;;10.77;7.45;;;;;;;13.58;45.68;98052.22;5025196;28;20025;-58
2022/04/08 08:30:15;;;;;;;10.93;7.22;;;;;;;13.80;46.64;98056.13;5024447;28;20041;-58
2022/04/08 08:32:47;;;;;;;14.63;7.45;;;;;;;13.95;45.72;98044.78;5025061;28;20045;-59
2022/04/08 08:35:15;;;;;;;14.07;7.63;;;;;;;13.68;44.90;97997.88;5025081;28;20385;-58
2022/04/08 08:37:41;;;;;;;10.15;6.57;;;;;;;14.14;44.92;98046.22;5025214;28;20192;-59
2022/04/08 08:40:08;;;;;;;11.80;6.93;;;;;;;14.20;45.65;98058.84;5029307;28;20096;-59
2022/04/08 08:42:39;;;;;;;16.20;7.55;;;;;;;13.67;44.63;97993.59;5014446;28;20338;-59
2022/04/08 08:45:07;;;;;;;12.25;7.38;;;;;;;14.03;45.17;98053.88;5020825;28;20072;-59
2022/04/08 08:47:33;;;;;;;12.68;7.20;;;;;;;13.85;44.25;98042.81;5039903;28;20038;-59
2022/04/08 08:49:59;;;;;;;11.82;6.75;;;;;;;14.35;45.22;98036.22;5025261;28;20287;-59
2022/04/08 08:52:25;;;;;;;9.60;7.22;;;;;;;14.25;44.18;98045.53;5034995;28;20030;-59
2022/04/08 08:54:51;;;;;;;10.32;7.22;;;;;;;14.42;44.39;98039.25;5008165;28;20031;-59
2022/04/08 08:57:18;;;;;;;10.35;7.00;;;;;;;13.97;44.24;98001.25;5016476;28;20068;-58
2022/04/08 08:59:44;;;;;;;13.60;7.47;;;;;;;14.11;43.25;98038.63;5031164;28;20050;-59
2022/04/08 09:02:20;;;;;;;8.25;6.70;;;;;;;14.05;43.52;98041.59;5044534;28;20068;-58
2022/04/08 09:04:47;;;;;;;8.25;6.68;;;;;;;13.77;43.53;98020.72;5004843;28;20310;-58
2022/04/08 09:07:25;;;;;;;9.98;7.50;;;;;;;14.18;43.72;98034.69;5023336;28;20022;-57
2022/04/08 09:09:52;;;;;;;9.25;7.35;;;;;;;14.06;43.87;98018.06;5037806;28;20017;-57
2022/04/08 09:12:18;;;;;;;8.55;7.45;;;;;;;14.22;43.52;98019.69;5024258;28;20029;-57
2022/04/08 09:14:49;;;;;;;11.43;7.28;;;;;;;14.25;43.64;97990.84;5024394;28;20026;-58
2022/04/08 09:17:19;;;;;;;12.00;7.93;;;;;;;14.30;43.17;98013.06;5021341;28;20029;-57
2022/04/08 09:19:55;;;;;;;14.43;7.32;;;;;;;14.32;43.17;98010.34;5015715;28;20470;-57
2022/04/08 09:22:24;;;;;;;11.48;7.10;;;;;;;14.20;43.40;97998.13;5017324;28;20053;-58
2022/04/08 09:24:51;;;;;;;12.82;8.13;;;;;;;14.26;43.16;98008.16;5022854;28;20193;-59
2022/04/08 09:27:16;;;;;;;11.52;7.57;;;;;;;14.36;44.06;97988.41;5016130;28;20018;-58
2022/04/08 09:29:45;;;;;;;14.50;7.82;;;;;;;14.38;42.89;98007.38;5016962;28;20038;-58
2022/04/08 09:32:12;;;;;;;13.25;7.68;;;;;;;14.30;43.36;98001.81;5011263;28;20030;-57
2022/04/08 09:34:39;;;;;;;11.15;7.53;;;;;;;14.15;42.63;97990.59;5024227;28;20046;-58
2022/04/08 09:37:15;;;;;;;13.15;8.32;;;;;;;14.31;43.28;98006.09;5024051;28;20029;-58
2022/04/08 09:39:56;;;;;;;10.60;8.05;;;;;;;14.30;43.30;98007.84;5037813;28;20340;-58
2022/04/08 09:42:30;;;;;;;11.68;8.02;;;;;;;14.55;43.29;98003.69;5023548;28;20132;-58
2022/04/08 09:44:55;;;;;;;11.43;7.50;;;;;;;14.46;42.93;98001.66;5025366;28;20033;-58
2022/04/08 09:47:21;;;;;;;16.27;7.60;;;;;;;14.49;43.53;97998.84;5017600;28;20037;-58
2022/04/08 09:49:47;;;;;;;10.30;7.47;;;;;;;14.35;42.15;97994.56;5018475;28;20026;-57
2022/04/08 09:52:16;;;;;;;12.15;7.75;;;;;;;14.03;43.96;97940.16;5021796;28;20061;-58
2022/04/08 09:54:43;;;;;;;12.85;7.80;;;;;;;14.30;43.40;97953.16;5017734;28;20037;-58
2022/04/08 09:57:16;;;;;;;9.38;7.47;;;;;;;14.56;42.98;97986.28;5023812;28;20057;-58
2022/04/08 09:59:44;;;;;;;11.48;7.53;;;;;;;14.23;41.40;97938.06;5023466;28;20033;-59
2022/04/08 10:02:10;;;;;;;13.25;7.20;;;;;;;14.46;41.62;98006.88;5024525;28;20123;-57
2022/04/08 10:04:37;;;;;;;12.88;7.60;;;;;;;14.57;42.45;97977.53;5024171;28;20089;-57
2022/04/08 10:07:03;;;;;;;12.93;7.75;;;;;;;14.83;42.05;97996.69;5022203;28;20038;-58
2022/04/08 10:09:32;;;;;;;11.07;6.78;;;;;;;14.53;43.08;98000.31;5035280;28;20029;-57
2022/04/08 10:12:22;;;;;;;8.88;7.40;;;;;;;14.78;42.38;98012.63;5031123;28;20337;-57
2022/04/08 10:15:11;;;;;;;11.90;7.72;;;;;;;14.33;41.95;97939.94;5042755;28;20076;-57
2022/04/08 10:17:36;;;;;;;13.77;7.68;;;;;;;14.66;41.80;97998.66;5035263;28;20367;-57
2022/04/08 10:20:17;;;;;;;11.68;7.88;;;;;;;14.67;42.90;97999.47;5022459;28;20041;-58
2022/04/08 10:22:43;;;;;;;11.90;7.30;;;;;;;14.75;42.45;97991.13;5015646;28;20085;-56
2022/04/08 10:25:14;;;;;;;11.13;7.32;;;;;;;14.79;41.79;97998.66;5022934;28;20208;-54
2022/04/08 10:27:41;;;;;;;12.52;7.13;;;;;;;14.46;42.60;97983.44;5023035;28;20072;-55
2022/04/08 10:30:15;;;;;;;13.60;6.90;;;;;;;14.41;43.00;97998.50;5013415;28;20044;-56
2022/04/08 10:32:43;;;;;;;10.23;7.50;;;;;;;14.35;42.40;97978.06;5019012;28;20026;-56
2022/04/08 10:35:19;;;;;;;13.82;7.55;;;;;;;14.06;42.15;97926.13;5018503;28;20038;-56
2022/04/08 10:38:01;;;;;;;13.93;8.50;;;;;;;14.24;43.42;97986.59;5003181;28;20045;-56
2022/04/08 10:40:30;;;;;;;12.13;7.50;;;;;;;14.67;42.74;97981.22;5022368;28;20396;-56
2022/04/08 10:42:57;;;;;;;12.30;7.45;;;;;;;14.38;43.06;97988.28;5037757;28;20057;-57
2022/04/08 10:45:23;;;;;;;12.30;7.50;;;;;;;14.56;43.02;97981.06;5033920;28;20108;-54
2022/04/08 10:47:49;;;;;;;10.38;7.95;;;;;;;14.48;43.52;97984.19;5015858;28;20044;-56
2022/04/08 10:50:30;;;;;;;15.00;7.80;;;;;;;14.71;43.41;97980.09;5023364;28;20034;-54
2022/04/08 10:53:09;;;;;;;12.73;8.35;;;;;;;14.59;42.99;97983.47;5041864;28;20030;-54
2022/04/08 10:55:54;;;;;;;11.07;8.27;;;;;;;14.77;43.39;97986.66;5022648;28;20037;-54
2022/04/08 10:58:35;;;;;;;18.65;9.63;;;;;;;14.50;42.87;97979.69;5039194;28;20301;-55
2022/04/08 11:01:12;;;;;;;14.52;9.38;;;;;;;14.55;43.37;97975.03;5018676;28;20049;-53
2022/04/08 11:03:41;;;;;;;15.70;8.23;;;;;;;14.40;43.77;97982.06;5023627;28;20030;-54
2022/04/08 11:06:07;;;;;;;11.07;8.43;;;;;;;14.46;44.05;97978.22;5021238;28;20219;-55
2022/04/08 11:08:33;;;;;;;12.05;7.90;;;;;;;14.11;44.06;97979.56;5026281;28;20024;-54
2022/04/08 11:10:59;;;;;;;13.32;6.97;;;;;;;13.94;45.12;97957.19;5030522;28;20038;-55
2022/04/08 11:13:25;;;;;;;12.10;8.23;;;;;;;13.78;45.96;97987.72;5022230;28;20042;-55
2022/04/08 11:15:51;;;;;;;11.80;8.48;;;;;;;13.86;45.84;97971.63;5025404;28;20044;-55
2022/04/08 11:18:18;;;;;;;14.55;8.07;;;;;;;13.95;47.22;97965.84;5031085;28;20310;-55
2022/04/08 11:20:49;;;;;;;13.40;8.35;;;;;;;13.90;46.44;97918.47;5027187;28;20348;-55
2022/04/08 11:23:23;;;;;;;12.70;8.57;;;;;;;13.96;47.89;97970.94;5023669;28;20353;-55
2022/04/08 11:25:49;;;;;;;11.13;8.73;;;;;;;13.94;48.85;97959.81;5022412;28;20069;-55
2022/04/08 11:28:16;;;;;;;12.38;8.82;;;;;;;13.98;48.23;97960.47;5030475;28;20022;-55